createdAt,value
2023-05-17T10:30:24.272Z,76.56
2023-05-17T10:33:18.343Z,75.83
2023-05-17T10:36:13.249Z,74.41
2023-05-17T10:39:00.251Z,74.14
2023-05-17T10:41:39.318Z,73.57
2023-05-17T10:44:33.208Z,73.70
2023-05-17T10:47:29.213Z,73.48
2023-05-17T10:50:21.212Z,72.42
2023-05-17T10:52:56.766Z,72.33
2023-05-17T10:55:48.150Z,72.40
2023-05-17T10:58:23.365Z,72.30
2023-05-17T11:01:12.159Z,72.43
2023-05-17T11:03:46.015Z,72.34
2023-05-17T11:06:33.181Z,70.99
2023-05-17T11:09:24.176Z,70.60
2023-05-17T11:12:16.167Z,70.21
2023-05-17T11:14:52.267Z,70.01
2023-05-17T11:17:51.277Z,69.77
2023-05-17T11:20:38.571Z,69.42
2023-05-17T11:23:38.095Z,68.14
2023-05-17T11:26:29.107Z,67.36
2023-05-17T11:29:21.180Z,66.33
2023-05-17T11:32:20.111Z,66.97
2023-05-17T11:35:08.095Z,68.19
2023-05-17T11:37:50.178Z,69.20
2023-05-17T11:40:37.064Z,68.09
2023-05-17T11:43:22.421Z,66.38
2023-05-17T11:46:05.057Z,65.43
2023-05-17T11:48:47.967Z,64.98
2023-05-17T11:51:29.061Z,64.85
2023-05-17T11:54:11.378Z,64.54
2023-05-17T11:56:51.043Z,64.31
2023-05-17T11:59:31.449Z,64.02
2023-05-17T12:02:11.033Z,63.20
2023-05-17T12:04:51.176Z,62.92
2023-05-17T12:07:33.072Z,61.91
2023-05-17T12:10:13.912Z,61.67
2023-05-17T12:12:53.999Z,61.50
2023-05-17T12:15:37.117Z,60.16
2023-05-17T12:18:17.125Z,58.34
2023-05-17T12:21:02.119Z,58.54
2023-05-17T12:23:50.310Z,58.38
2023-05-17T12:26:31.178Z,57.49
2023-05-17T12:29:12.152Z,56.19
2023-05-17T12:32:00.099Z,55.08
2023-05-17T12:34:39.940Z,54.98
2023-05-17T12:37:20.683Z,54.60
2023-05-17T12:40:02.962Z,55.23
2023-05-17T12:42:49.587Z,55.64
2023-05-17T12:45:29.951Z,55.63
2023-05-17T12:48:10.125Z,55.37
2023-05-17T12:50:52.958Z,55.56
2023-05-17T12:53:42.008Z,54.84
2023-05-17T12:56:23.851Z,54.28
2023-05-17T12:59:11.685Z,55.69
2023-05-17T13:01:56.997Z,55.95
2023-05-17T13:04:39.880Z,56.78
2023-05-17T13:07:28.925Z,57.77
2023-05-17T13:10:08.989Z,58.95
2023-05-17T13:12:48.902Z,59.16
2023-05-17T13:15:41.084Z,56.22
2023-05-17T13:18:22.866Z,54.31
2023-05-17T13:21:03.029Z,50.58
2023-05-17T13:23:49.946Z,49.74
2023-05-17T13:26:29.976Z,50.81
2023-05-17T13:29:09.885Z,51.66
2023-05-17T13:31:49.853Z,52.57
2023-05-17T13:34:29.903Z,53.59
2023-05-17T13:37:13.924Z,54.11
2023-05-17T13:39:53.861Z,54.77
2023-05-17T13:42:33.990Z,55.60
2023-05-17T13:45:15.879Z,55.44
2023-05-17T13:47:57.267Z,54.46
2023-05-17T13:50:37.784Z,54.76
2023-05-17T13:53:18.320Z,54.64
2023-05-17T13:55:58.783Z,55.41
2023-05-17T13:58:38.879Z,55.73
2023-05-17T14:01:18.773Z,55.45
2023-05-17T14:04:00.873Z,55.16
2023-05-17T14:06:40.760Z,55.13
2023-05-17T14:09:21.797Z,54.97
2023-05-17T14:12:02.748Z,54.86
2023-05-17T14:14:42.952Z,53.96
2023-05-17T14:17:23.723Z,53.84
2023-05-17T14:20:05.087Z,53.64
2023-05-17T14:22:44.733Z,53.37
2023-05-17T14:25:24.849Z,53.18
2023-05-17T14:28:04.983Z,52.49
2023-05-17T14:30:45.341Z,51.98
2023-05-17T14:33:25.808Z,51.60
2023-05-17T14:36:05.871Z,50.73
2023-05-17T14:38:46.681Z,51.03
2023-05-17T14:41:27.240Z,50.57
2023-05-17T14:44:07.647Z,50.64
2023-05-17T14:46:47.709Z,50.53
2023-05-17T14:49:27.669Z,50.86
2023-05-17T14:52:07.732Z,51.37
2023-05-17T14:54:48.567Z,51.14
2023-05-17T14:57:28.746Z,52.07
2023-05-17T15:00:08.648Z,51.94
2023-05-17T15:02:48.729Z,51.40
2023-05-17T15:05:29.004Z,51.66
2023-05-17T15:08:11.043Z,51.17
2023-05-17T15:10:51.662Z,51.61
2023-05-17T15:13:31.696Z,51.96
2023-05-17T15:16:11.562Z,51.99
2023-05-17T15:18:52.890Z,52.21
2023-05-17T15:21:34.600Z,52.25
2023-05-17T15:24:16.452Z,52.26
2023-05-17T15:26:57.574Z,53.22
2023-05-17T15:29:51.532Z,53.95
2023-05-17T15:32:41.001Z,53.68
2023-05-17T15:35:14.640Z,54.15
2023-05-17T15:38:03.553Z,54.33
2023-05-17T15:40:43.713Z,54.47
2023-05-17T15:43:23.512Z,54.86
2023-05-17T15:46:03.660Z,54.58
2023-05-17T15:48:43.562Z,54.30
2023-05-17T15:51:23.658Z,54.95
2023-05-17T15:54:03.508Z,55.21
2023-05-17T15:56:43.596Z,55.48
2023-05-17T15:59:23.501Z,55.46
2023-05-17T16:02:03.591Z,55.81
2023-05-17T16:04:43.441Z,55.94
2023-05-17T16:07:26.397Z,55.45
2023-05-17T16:10:06.494Z,56.23
2023-05-17T16:12:47.587Z,56.34
2023-05-17T16:15:27.601Z,56.82
2023-05-17T16:18:07.980Z,57.49
2023-05-17T16:20:48.422Z,57.98
2023-05-17T16:23:28.587Z,58.27
2023-05-17T16:26:08.435Z,58.51
2023-05-17T16:29:03.363Z,58.63
2023-05-17T16:31:50.397Z,58.77
2023-05-17T16:34:24.851Z,59.42
2023-05-17T16:37:11.587Z,60.04
2023-05-17T16:39:45.988Z,60.42
2023-05-17T16:42:32.434Z,61.10
2023-05-17T16:45:13.495Z,61.52
2023-05-17T16:47:53.398Z,61.93
2023-05-17T16:50:33.499Z,62.36
2023-05-17T16:53:13.384Z,62.84
2023-05-17T16:55:53.437Z,63.12
2023-05-17T16:58:33.356Z,63.66
2023-05-17T17:01:13.414Z,64.26
2023-05-17T17:03:53.438Z,64.79
2023-05-17T17:06:34.045Z,65.01
2023-05-17T17:09:15.377Z,65.53
2023-05-17T17:11:55.423Z,65.70
2023-05-17T17:14:35.355Z,65.71
2023-05-17T17:17:15.377Z,66.15
2023-05-17T17:19:55.327Z,66.96
2023-05-17T17:22:35.480Z,67.61
2023-05-17T17:25:16.293Z,67.93
2023-05-17T17:27:56.435Z,68.03
2023-05-17T17:30:36.292Z,68.18
2023-05-17T17:33:16.395Z,68.26
2023-05-17T17:35:56.274Z,68.36
2023-05-17T17:38:36.351Z,68.78
2023-05-17T17:41:17.212Z,69.79
2023-05-17T17:43:57.324Z,70.05
2023-05-17T17:46:37.239Z,70.72
2023-05-17T17:49:17.342Z,70.79
2023-05-17T17:51:57.494Z,71.19
2023-05-17T17:54:37.388Z,71.42
2023-05-17T17:57:17.234Z,71.67
2023-05-17T17:59:58.333Z,71.95
2023-05-17T18:02:38.271Z,72.48
2023-05-17T18:05:18.318Z,72.74
2023-05-17T18:07:59.218Z,73.01
2023-05-17T18:10:39.241Z,73.22
2023-05-17T18:13:19.223Z,73.43
2023-05-17T18:15:59.315Z,74.42
2023-05-17T18:18:39.213Z,74.60
2023-05-17T18:21:19.365Z,74.72
2023-05-17T18:23:59.174Z,75.19
2023-05-17T18:26:39.232Z,75.57
2023-05-17T18:29:19.081Z,76.06
2023-05-17T18:32:01.758Z,76.36
2023-05-17T18:34:43.148Z,76.57
2023-05-17T18:37:23.252Z,76.58
2023-05-17T18:40:03.163Z,77.16
2023-05-17T18:42:43.654Z,77.69
2023-05-17T18:45:24.465Z,77.69
2023-05-17T18:48:04.213Z,77.79
2023-05-17T18:50:44.064Z,78.44
2023-05-17T18:53:24.387Z,78.61
2023-05-17T18:56:08.097Z,79.09
2023-05-17T18:58:48.149Z,78.85
2023-05-17T19:01:28.247Z,79.62
2023-05-17T19:04:08.252Z,79.28
2023-05-17T19:06:49.087Z,79.32
2023-05-17T19:09:29.153Z,80.22
2023-05-17T19:12:09.044Z,80.35
2023-05-17T19:14:49.072Z,80.43
2023-05-17T19:17:29.099Z,80.29
2023-05-17T19:20:10.112Z,80.39
2023-05-17T19:22:50.020Z,80.37
2023-05-17T19:25:30.114Z,80.56
2023-05-17T19:28:09.988Z,80.68
2023-05-17T19:31:04.053Z,80.52
2023-05-17T19:33:51.034Z,80.25
2023-05-17T19:36:24.036Z,80.39
2023-05-17T19:39:10.997Z,80.53
2023-05-17T19:41:44.056Z,80.74
2023-05-17T19:44:30.987Z,80.71
2023-05-17T19:47:04.027Z,80.91
2023-05-17T19:49:51.287Z,80.70
2023-05-17T19:52:25.047Z,80.41
2023-05-17T19:55:12.990Z,80.60
2023-05-17T19:57:53.012Z,80.90
2023-05-17T20:00:32.975Z,81.07
2023-05-17T20:03:13.222Z,80.75
2023-05-17T20:05:52.966Z,80.67
2023-05-17T20:08:32.967Z,80.36
2023-05-17T20:11:12.918Z,80.18
2023-05-17T20:13:52.929Z,80.07
2023-05-17T20:16:34.959Z,80.06
2023-05-17T20:19:15.048Z,79.98
2023-05-17T20:21:54.883Z,79.74
2023-05-17T20:24:35.056Z,79.22
2023-05-17T20:27:14.805Z,78.80
2023-05-17T20:30:08.815Z,78.54
2023-05-17T20:32:55.901Z,78.47
2023-05-17T20:35:29.008Z,78.24
2023-05-17T20:38:15.833Z,78.17
2023-05-17T20:40:48.954Z,77.89
2023-05-17T20:43:35.850Z,77.60
2023-05-17T20:46:09.938Z,77.28
2023-05-17T20:48:56.835Z,77.51
2023-05-17T20:51:31.943Z,77.53
2023-05-17T20:54:19.072Z,77.38
2023-05-17T20:56:52.895Z,77.17
2023-05-17T20:59:39.792Z,77.03
2023-05-17T21:02:22.568Z,76.90
2023-05-17T21:05:02.803Z,76.70
2023-05-17T21:07:42.918Z,76.92
2023-05-17T21:10:24.742Z,77.15
2023-05-17T21:13:04.846Z,77.19
2023-05-17T21:15:44.770Z,77.06
2023-05-17T21:18:24.840Z,76.91
2023-05-17T21:21:04.783Z,76.98
2023-05-17T21:23:44.934Z,77.09
2023-05-17T21:26:24.694Z,77.18
2023-05-17T21:29:18.680Z,77.12
2023-05-17T21:32:05.775Z,77.23
2023-05-17T21:34:45.912Z,77.30
2023-05-17T21:37:25.782Z,77.26
2023-05-17T21:40:05.901Z,77.37
2023-05-17T21:42:45.684Z,77.53
2023-05-17T21:45:25.897Z,77.82
2023-05-17T21:48:05.708Z,77.88
2023-05-17T21:50:45.958Z,77.97
2023-05-17T21:53:25.658Z,77.98
2023-05-17T21:56:05.904Z,77.85
2023-05-17T21:58:45.942Z,77.86
2023-05-17T22:01:25.784Z,78.05
2023-05-17T22:04:06.887Z,78.03
2023-05-17T22:06:46.777Z,77.88
2023-05-17T22:09:26.621Z,77.77
2023-05-17T22:12:08.639Z,77.63
2023-05-17T22:14:51.618Z,77.62
2023-05-17T22:17:43.048Z,77.70
2023-05-17T22:20:35.651Z,77.92
2023-05-17T22:23:16.374Z,77.92
2023-05-17T22:25:56.566Z,77.78
2023-05-17T22:28:43.575Z,77.67
2023-05-17T22:31:37.759Z,77.55
2023-05-17T22:34:31.570Z,77.35
2023-05-17T22:37:18.522Z,77.59
2023-05-17T22:39:51.743Z,77.73
2023-05-17T22:42:46.555Z,77.99
2023-05-17T22:45:41.528Z,77.98
2023-05-17T22:48:28.550Z,77.69
2023-05-17T22:51:01.624Z,77.57
2023-05-17T22:53:48.508Z,77.50
2023-05-17T22:56:21.603Z,77.38
2023-05-17T22:59:08.866Z,77.39
2023-05-17T23:01:42.693Z,77.64
2023-05-17T23:04:32.527Z,77.88
2023-05-17T23:07:05.658Z,77.84
2023-05-17T23:09:52.530Z,77.65
2023-05-17T23:12:27.661Z,77.50
2023-05-17T23:15:16.533Z,77.29
2023-05-17T23:17:49.605Z,77.26
2023-05-17T23:20:36.513Z,77.30
2023-05-17T23:23:09.538Z,77.59
2023-05-17T23:25:57.467Z,77.83
2023-05-17T23:28:30.515Z,77.90
2023-05-17T23:31:17.487Z,77.82
2023-05-17T23:33:50.527Z,77.73
2023-05-17T23:36:37.420Z,77.45
2023-05-17T23:39:10.916Z,77.21
2023-05-17T23:42:00.423Z,77.20
2023-05-17T23:44:35.019Z,77.10
2023-05-17T23:47:24.423Z,76.92
2023-05-17T23:49:57.671Z,77.07
2023-05-17T23:52:45.390Z,77.37
2023-05-17T23:55:18.827Z,77.76
2023-05-17T23:58:06.409Z,77.74
